sensor_id;sensor_type;location;lat;lon;timestamp;P1;durP1;ratioP1;P2;durP2;ratioP2
23866;SDS011;12114;53.404;-1.502;2022-11-20T00:01:10;82.30;;;43.78;;
23866;SDS011;12114;53.404;-1.502;2022-11-20T00:03:35;64.65;;;37.55;;
23866;SDS011;12114;53.404;-1.502;2022-11-20T00:06:01;55.97;;;34.10;;
23866;SDS011;12114;53.404;-1.502;2022-11-20T00:08:27;54.42;;;32.65;;
23866;SDS011;12114;53.404;-1.502;2022-11-20T00:10:53;59.92;;;32.85;;
23866;SDS011;12114;53.404;-1.502;2022-11-20T00:13:19;62.58;;;35.38;;
23866;SDS011;12114;53.404;-1.502;2022-11-20T00:15:44;56.08;;;30.73;;
23866;SDS011;12114;53.404;-1.502;2022-11-20T00:18:09;56.65;;;33.42;;
23866;SDS011;12114;53.404;-1.502;2022-11-20T00:20:34;51.40;;;29.77;;
23866;SDS011;12114;53.404;-1.502;2022-11-20T00:23:00;53.88;;;27.70;;
23866;SDS011;12114;53.404;-1.502;2022-11-20T00:25:25;54.78;;;28.20;;
23866;SDS011;12114;53.404;-1.502;2022-11-20T00:27:51;55.78;;;30.17;;
23866;SDS011;12114;53.404;-1.502;2022-11-20T00:30:18;61.13;;;31.77;;
23866;SDS011;12114;53.404;-1.502;2022-11-20T00:32:43;78.35;;;44.97;;
23866;SDS011;12114;53.404;-1.502;2022-11-20T00:35:09;65.95;;;33.75;;
23866;SDS011;12114;53.404;-1.502;2022-11-20T00:37:34;58.28;;;34.28;;
23866;SDS011;12114;53.404;-1.502;2022-11-20T00:40:00;51.78;;;29.63;;
23866;SDS011;12114;53.404;-1.502;2022-11-20T00:42:25;52.42;;;31.27;;
23866;SDS011;12114;53.404;-1.502;2022-11-20T00:44:51;62.55;;;32.97;;
23866;SDS011;12114;53.404;-1.502;2022-11-20T00:47:16;55.80;;;30.35;;
23866;SDS011;12114;53.404;-1.502;2022-11-20T00:49:42;60.50;;;30.23;;
23866;SDS011;12114;53.404;-1.502;2022-11-20T00:52:08;52.17;;;28.48;;
23866;SDS011;12114;53.404;-1.502;2022-11-20T00:54:33;52.67;;;28.65;;
23866;SDS011;12114;53.404;-1.502;2022-11-20T00:56:59;51.88;;;27.83;;
23866;SDS011;12114;53.404;-1.502;2022-11-20T00:59:24;59.97;;;28.17;;
23866;SDS011;12114;53.404;-1.502;2022-11-20T01:01:50;51.55;;;26.95;;
23866;SDS011;12114;53.404;-1.502;2022-11-20T01:04:15;49.20;;;26.35;;
23866;SDS011;12114;53.404;-1.502;2022-11-20T01:06:41;52.08;;;27.13;;
23866;SDS011;12114;53.404;-1.502;2022-11-20T01:09:11;51.03;;;28.88;;
23866;SDS011;12114;53.404;-1.502;2022-11-20T01:11:37;59.83;;;33.45;;
23866;SDS011;12114;53.404;-1.502;2022-11-20T01:14:04;53.85;;;29.10;;
23866;SDS011;12114;53.404;-1.502;2022-11-20T01:16:32;71.93;;;40.40;;
23866;SDS011;12114;53.404;-1.502;2022-11-20T01:18:58;67.32;;;36.70;;
23866;SDS011;12114;53.404;-1.502;2022-11-20T01:21:25;73.15;;;41.15;;
23866;SDS011;12114;53.404;-1.502;2022-11-20T01:23:50;63.75;;;35.42;;
23866;SDS011;12114;53.404;-1.502;2022-11-20T01:26:20;76.25;;;44.92;;
23866;SDS011;12114;53.404;-1.502;2022-11-20T01:28:46;57.83;;;35.53;;
23866;SDS011;12114;53.404;-1.502;2022-11-20T01:31:16;56.30;;;33.90;;
23866;SDS011;12114;53.404;-1.502;2022-11-20T01:33:43;57.60;;;35.03;;
23866;SDS011;12114;53.404;-1.502;2022-11-20T01:36:09;70.82;;;40.20;;
23866;SDS011;12114;53.404;-1.502;2022-11-20T01:38:35;63.50;;;33.30;;
23866;SDS011;12114;53.404;-1.502;2022-11-20T01:41:00;63.05;;;33.33;;
23866;SDS011;12114;53.404;-1.502;2022-11-20T01:43:26;49.85;;;30.95;;
23866;SDS011;12114;53.404;-1.502;2022-11-20T01:48:17;55.53;;;29.33;;
23866;SDS011;12114;53.404;-1.502;2022-11-20T01:50:43;58.03;;;32.08;;
23866;SDS011;12114;53.404;-1.502;2022-11-20T01:53:10;50.72;;;29.73;;
23866;SDS011;12114;53.404;-1.502;2022-11-20T01:55:43;58.25;;;33.97;;
23866;SDS011;12114;53.404;-1.502;2022-11-20T01:58:10;57.47;;;28.90;;
23866;SDS011;12114;53.404;-1.502;2022-11-20T02:00:36;68.25;;;33.35;;
23866;SDS011;12114;53.404;-1.502;2022-11-20T02:03:06;51.50;;;29.27;;
23866;SDS011;12114;53.404;-1.502;2022-11-20T02:08:06;58.42;;;29.92;;
23866;SDS011;12114;53.404;-1.502;2022-11-20T02:10:31;53.22;;;27.42;;
23866;SDS011;12114;53.404;-1.502;2022-11-20T02:12:57;43.15;;;23.45;;
23866;SDS011;12114;53.404;-1.502;2022-11-20T02:15:42;46.75;;;26.75;;
23866;SDS011;12114;53.404;-1.502;2022-11-20T02:18:07;46.90;;;23.70;;
23866;SDS011;12114;53.404;-1.502;2022-11-20T02:20:33;41.95;;;21.65;;
23866;SDS011;12114;53.404;-1.502;2022-11-20T02:23:05;39.03;;;22.83;;
23866;SDS011;12114;53.404;-1.502;2022-11-20T02:25:33;42.15;;;22.33;;
23866;SDS011;12114;53.404;-1.502;2022-11-20T02:27:59;45.10;;;23.48;;
23866;SDS011;12114;53.404;-1.502;2022-11-20T02:30:25;48.45;;;24.90;;
23866;SDS011;12114;53.404;-1.502;2022-11-20T02:32:51;42.13;;;23.63;;
23866;SDS011;12114;53.404;-1.502;2022-11-20T02:37:44;41.90;;;23.38;;
23866;SDS011;12114;53.404;-1.502;2022-11-20T02:40:10;37.33;;;21.33;;
23866;SDS011;12114;53.404;-1.502;2022-11-20T02:42:36;41.92;;;23.05;;
23866;SDS011;12114;53.404;-1.502;2022-11-20T02:45:01;44.17;;;23.90;;
23866;SDS011;12114;53.404;-1.502;2022-11-20T02:47:26;43.67;;;23.80;;
23866;SDS011;12114;53.404;-1.502;2022-11-20T02:49:52;42.88;;;21.90;;
23866;SDS011;12114;53.404;-1.502;2022-11-20T02:52:17;41.00;;;22.45;;
23866;SDS011;12114;53.404;-1.502;2022-11-20T02:54:43;38.45;;;21.08;;
23866;SDS011;12114;53.404;-1.502;2022-11-20T02:57:08;40.17;;;20.17;;
23866;SDS011;12114;53.404;-1.502;2022-11-20T02:59:33;39.55;;;21.02;;
23866;SDS011;12114;53.404;-1.502;2022-11-20T03:02:00;38.13;;;19.95;;
23866;SDS011;12114;53.404;-1.502;2022-11-20T03:04:25;44.00;;;18.65;;
23866;SDS011;12114;53.404;-1.502;2022-11-20T03:06:51;39.63;;;18.83;;
23866;SDS011;12114;53.404;-1.502;2022-11-20T03:09:16;34.90;;;18.92;;
23866;SDS011;12114;53.404;-1.502;2022-11-20T03:11:41;39.28;;;19.30;;
23866;SDS011;12114;53.404;-1.502;2022-11-20T03:14:07;34.65;;;18.02;;
23866;SDS011;12114;53.404;-1.502;2022-11-20T03:16:32;36.95;;;17.58;;
23866;SDS011;12114;53.404;-1.502;2022-11-20T03:18:58;37.67;;;18.40;;
23866;SDS011;12114;53.404;-1.502;2022-11-20T03:21:23;34.15;;;17.63;;
23866;SDS011;12114;53.404;-1.502;2022-11-20T03:23:49;40.33;;;17.98;;
23866;SDS011;12114;53.404;-1.502;2022-11-20T03:28:41;33.20;;;17.92;;
23866;SDS011;12114;53.404;-1.502;2022-11-20T03:31:10;37.17;;;17.20;;
23866;SDS011;12114;53.404;-1.502;2022-11-20T03:33:36;39.67;;;16.20;;
23866;SDS011;12114;53.404;-1.502;2022-11-20T03:36:03;32.20;;;15.45;;
23866;SDS011;12114;53.404;-1.502;2022-11-20T03:38:29;36.72;;;16.05;;
23866;SDS011;12114;53.404;-1.502;2022-11-20T03:41:00;34.05;;;16.30;;
23866;SDS011;12114;53.404;-1.502;2022-11-20T03:43:25;35.42;;;16.35;;
23866;SDS011;12114;53.404;-1.502;2022-11-20T03:45:54;33.40;;;15.10;;
23866;SDS011;12114;53.404;-1.502;2022-11-20T03:48:20;32.50;;;15.32;;
23866;SDS011;12114;53.404;-1.502;2022-11-20T03:50:45;26.88;;;14.38;;
23866;SDS011;12114;53.404;-1.502;2022-11-20T03:53:13;32.25;;;14.98;;
23866;SDS011;12114;53.404;-1.502;2022-11-20T03:55:38;27.80;;;14.32;;
23866;SDS011;12114;53.404;-1.502;2022-11-20T03:58:04;37.05;;;15.65;;
23866;SDS011;12114;53.404;-1.502;2022-11-20T04:00:29;26.80;;;13.93;;
23866;SDS011;12114;53.404;-1.502;2022-11-20T04:02:57;28.77;;;14.07;;
23866;SDS011;12114;53.404;-1.502;2022-11-20T04:05:22;26.13;;;12.88;;
23866;SDS011;12114;53.404;-1.502;2022-11-20T04:07:48;27.15;;;13.32;;
23866;SDS011;12114;53.404;-1.502;2022-11-20T04:10:13;28.40;;;13.77;;
23866;SDS011;12114;53.404;-1.502;2022-11-20T04:12:39;24.80;;;11.82;;
23866;SDS011;12114;53.404;-1.502;2022-11-20T04:15:04;27.65;;;11.80;;
23866;SDS011;12114;53.404;-1.502;2022-11-20T04:17:30;24.38;;;10.93;;
23866;SDS011;12114;53.404;-1.502;2022-11-20T04:19:56;22.27;;;11.45;;
23866;SDS011;12114;53.404;-1.502;2022-11-20T04:22:21;23.73;;;9.55;;
23866;SDS011;12114;53.404;-1.502;2022-11-20T04:24:46;21.88;;;10.13;;
23866;SDS011;12114;53.404;-1.502;2022-11-20T04:27:11;21.58;;;9.93;;
23866;SDS011;12114;53.404;-1.502;2022-11-20T04:29:37;16.77;;;9.35;;
23866;SDS011;12114;53.404;-1.502;2022-11-20T04:32:03;18.73;;;9.25;;
23866;SDS011;12114;53.404;-1.502;2022-11-20T04:34:28;17.15;;;9.30;;
23866;SDS011;12114;53.404;-1.502;2022-11-20T04:36:54;15.52;;;8.85;;
23866;SDS011;12114;53.404;-1.502;2022-11-20T04:39:20;16.85;;;9.77;;
23866;SDS011;12114;53.404;-1.502;2022-11-20T04:41:45;21.17;;;9.40;;
23866;SDS011;12114;53.404;-1.502;2022-11-20T04:44:10;16.48;;;8.65;;
23866;SDS011;12114;53.404;-1.502;2022-11-20T04:46:40;16.35;;;9.25;;
23866;SDS011;12114;53.404;-1.502;2022-11-20T04:49:05;17.15;;;9.23;;
23866;SDS011;12114;53.404;-1.502;2022-11-20T04:51:31;16.65;;;9.07;;
23866;SDS011;12114;53.404;-1.502;2022-11-20T04:53:57;12.68;;;8.45;;
23866;SDS011;12114;53.404;-1.502;2022-11-20T04:56:22;14.45;;;8.52;;
23866;SDS011;12114;53.404;-1.502;2022-11-20T04:58:47;15.82;;;9.05;;
23866;SDS011;12114;53.404;-1.502;2022-11-20T05:01:14;16.55;;;9.10;;
23866;SDS011;12114;53.404;-1.502;2022-11-20T05:03:40;14.68;;;8.43;;
23866;SDS011;12114;53.404;-1.502;2022-11-20T05:06:06;15.82;;;8.63;;
23866;SDS011;12114;53.404;-1.502;2022-11-20T05:08:32;15.63;;;9.00;;
23866;SDS011;12114;53.404;-1.502;2022-11-20T05:11:01;15.30;;;8.45;;
23866;SDS011;12114;53.404;-1.502;2022-11-20T05:13:27;13.45;;;8.05;;
23866;SDS011;12114;53.404;-1.502;2022-11-20T05:15:52;12.23;;;7.18;;
23866;SDS011;12114;53.404;-1.502;2022-11-20T05:18:17;11.18;;;6.50;;
23866;SDS011;12114;53.404;-1.502;2022-11-20T05:20:43;10.20;;;6.78;;
23866;SDS011;12114;53.404;-1.502;2022-11-20T05:23:08;9.77;;;6.28;;
23866;SDS011;12114;53.404;-1.502;2022-11-20T05:25:33;10.10;;;6.70;;
23866;SDS011;12114;53.404;-1.502;2022-11-20T05:27:59;10.77;;;7.03;;
23866;SDS011;12114;53.404;-1.502;2022-11-20T05:30:24;10.05;;;6.63;;
23866;SDS011;12114;53.404;-1.502;2022-11-20T05:32:50;9.55;;;6.10;;
23866;SDS011;12114;53.404;-1.502;2022-11-20T05:35:15;9.55;;;6.07;;
23866;SDS011;12114;53.404;-1.502;2022-11-20T05:37:41;10.48;;;6.18;;
23866;SDS011;12114;53.404;-1.502;2022-11-20T05:40:06;9.93;;;6.40;;
23866;SDS011;12114;53.404;-1.502;2022-11-20T05:42:32;8.10;;;4.60;;
23866;SDS011;12114;53.404;-1.502;2022-11-20T05:44:58;10.05;;;5.40;;
23866;SDS011;12114;53.404;-1.502;2022-11-20T05:47:24;13.38;;;7.38;;
23866;SDS011;12114;53.404;-1.502;2022-11-20T05:49:49;11.63;;;6.32;;
23866;SDS011;12114;53.404;-1.502;2022-11-20T05:52:15;7.43;;;5.22;;
23866;SDS011;12114;53.404;-1.502;2022-11-20T05:54:40;8.23;;;5.78;;
23866;SDS011;12114;53.404;-1.502;2022-11-20T05:57:05;8.23;;;5.75;;
23866;SDS011;12114;53.404;-1.502;2022-11-20T05:59:30;8.60;;;5.25;;
23866;SDS011;12114;53.404;-1.502;2022-11-20T06:01:56;7.60;;;5.18;;
23866;SDS011;12114;53.404;-1.502;2022-11-20T06:04:21;9.55;;;5.75;;
23866;SDS011;12114;53.404;-1.502;2022-11-20T06:06:46;7.55;;;5.38;;
23866;SDS011;12114;53.404;-1.502;2022-11-20T06:09:12;7.90;;;5.80;;
23866;SDS011;12114;53.404;-1.502;2022-11-20T06:11:37;43.55;;;7.07;;
23866;SDS011;12114;53.404;-1.502;2022-11-20T06:14:03;6.30;;;4.70;;
23866;SDS011;12114;53.404;-1.502;2022-11-20T06:16:28;6.72;;;5.18;;
23866;SDS011;12114;53.404;-1.502;2022-11-20T06:18:53;6.55;;;4.63;;
23866;SDS011;12114;53.404;-1.502;2022-11-20T06:21:20;8.38;;;6.07;;
23866;SDS011;12114;53.404;-1.502;2022-11-20T06:23:45;7.47;;;4.80;;
23866;SDS011;12114;53.404;-1.502;2022-11-20T06:26:20;7.18;;;5.85;;
23866;SDS011;12114;53.404;-1.502;2022-11-20T06:33:36;5.77;;;3.83;;
23866;SDS011;12114;53.404;-1.502;2022-11-20T06:36:03;6.18;;;4.53;;
23866;SDS011;12114;53.404;-1.502;2022-11-20T06:38:28;5.07;;;2.88;;
23866;SDS011;12114;53.404;-1.502;2022-11-20T06:40:54;3.60;;;3.17;;
23866;SDS011;12114;53.404;-1.502;2022-11-20T06:43:20;4.05;;;2.03;;
23866;SDS011;12114;53.404;-1.502;2022-11-20T06:45:45;4.18;;;2.70;;
23866;SDS011;12114;53.404;-1.502;2022-11-20T06:48:11;3.28;;;2.40;;
23866;SDS011;12114;53.404;-1.502;2022-11-20T06:50:37;3.28;;;1.92;;
23866;SDS011;12114;53.404;-1.502;2022-11-20T06:53:03;6.30;;;3.45;;
23866;SDS011;12114;53.404;-1.502;2022-11-20T06:55:30;4.22;;;2.42;;
23866;SDS011;12114;53.404;-1.502;2022-11-20T06:57:56;3.60;;;2.80;;
23866;SDS011;12114;53.404;-1.502;2022-11-20T07:00:21;4.35;;;2.58;;
23866;SDS011;12114;53.404;-1.502;2022-11-20T07:02:47;2.88;;;1.90;;
23866;SDS011;12114;53.404;-1.502;2022-11-20T07:05:13;4.80;;;2.60;;
23866;SDS011;12114;53.404;-1.502;2022-11-20T07:07:38;4.68;;;3.17;;
23866;SDS011;12114;53.404;-1.502;2022-11-20T07:10:04;4.60;;;2.75;;
23866;SDS011;12114;53.404;-1.502;2022-11-20T07:12:30;4.65;;;2.97;;
23866;SDS011;12114;53.404;-1.502;2022-11-20T07:14:55;4.85;;;2.97;;
23866;SDS011;12114;53.404;-1.502;2022-11-20T07:17:22;4.68;;;3.20;;
23866;SDS011;12114;53.404;-1.502;2022-11-20T07:19:47;4.53;;;3.25;;
23866;SDS011;12114;53.404;-1.502;2022-11-20T07:22:13;5.20;;;3.75;;
23866;SDS011;12114;53.404;-1.502;2022-11-20T07:24:38;4.13;;;3.03;;
23866;SDS011;12114;53.404;-1.502;2022-11-20T07:27:04;6.47;;;4.20;;
23866;SDS011;12114;53.404;-1.502;2022-11-20T07:29:30;13.48;;;3.55;;
23866;SDS011;12114;53.404;-1.502;2022-11-20T07:31:55;11.05;;;5.68;;
23866;SDS011;12114;53.404;-1.502;2022-11-20T07:34:21;4.72;;;3.60;;
23866;SDS011;12114;53.404;-1.502;2022-11-20T07:36:47;4.90;;;3.45;;
23866;SDS011;12114;53.404;-1.502;2022-11-20T07:39:12;7.22;;;4.30;;
23866;SDS011;12114;53.404;-1.502;2022-11-20T07:41:37;9.32;;;5.38;;
23866;SDS011;12114;53.404;-1.502;2022-11-20T07:44:03;6.15;;;4.10;;
23866;SDS011;12114;53.404;-1.502;2022-11-20T07:46:28;7.85;;;4.28;;
23866;SDS011;12114;53.404;-1.502;2022-11-20T07:48:53;7.25;;;4.13;;
23866;SDS011;12114;53.404;-1.502;2022-11-20T07:51:19;7.57;;;4.57;;
23866;SDS011;12114;53.404;-1.502;2022-11-20T07:53:44;9.15;;;6.28;;
23866;SDS011;12114;53.404;-1.502;2022-11-20T07:56:10;12.07;;;6.00;;
23866;SDS011;12114;53.404;-1.502;2022-11-20T07:58:35;8.40;;;5.82;;
23866;SDS011;12114;53.404;-1.502;2022-11-20T08:01:04;7.95;;;5.43;;
23866;SDS011;12114;53.404;-1.502;2022-11-20T08:03:30;25.83;;;6.55;;
23866;SDS011;12114;53.404;-1.502;2022-11-20T08:05:58;9.77;;;5.38;;
23866;SDS011;12114;53.404;-1.502;2022-11-20T08:08:23;11.10;;;6.35;;
23866;SDS011;12114;53.404;-1.502;2022-11-20T08:10:48;8.93;;;5.60;;
23866;SDS011;12114;53.404;-1.502;2022-11-20T08:13:13;8.68;;;5.05;;
23866;SDS011;12114;53.404;-1.502;2022-11-20T08:15:57;11.27;;;6.45;;
23866;SDS011;12114;53.404;-1.502;2022-11-20T08:18:23;10.02;;;5.43;;
23866;SDS011;12114;53.404;-1.502;2022-11-20T08:20:48;11.82;;;5.63;;
23866;SDS011;12114;53.404;-1.502;2022-11-20T08:23:14;7.55;;;6.03;;
23866;SDS011;12114;53.404;-1.502;2022-11-20T08:25:40;17.73;;;10.70;;
23866;SDS011;12114;53.404;-1.502;2022-11-20T08:28:06;16.02;;;9.80;;
23866;SDS011;12114;53.404;-1.502;2022-11-20T08:30:32;17.63;;;9.32;;
23866;SDS011;12114;53.404;-1.502;2022-11-20T08:33:02;16.58;;;10.90;;
23866;SDS011;12114;53.404;-1.502;2022-11-20T08:35:28;20.60;;;10.43;;
23866;SDS011;12114;53.404;-1.502;2022-11-20T08:37:53;22.23;;;9.38;;
23866;SDS011;12114;53.404;-1.502;2022-11-20T08:40:18;16.65;;;8.57;;
23866;SDS011;12114;53.404;-1.502;2022-11-20T08:42:47;16.88;;;6.35;;
23866;SDS011;12114;53.404;-1.502;2022-11-20T08:45:13;13.30;;;5.45;;
23866;SDS011;12114;53.404;-1.502;2022-11-20T08:47:39;14.88;;;6.15;;
23866;SDS011;12114;53.404;-1.502;2022-11-20T08:50:04;14.68;;;6.53;;
23866;SDS011;12114;53.404;-1.502;2022-11-20T08:52:30;17.13;;;7.00;;
23866;SDS011;12114;53.404;-1.502;2022-11-20T08:54:55;15.57;;;6.93;;
23866;SDS011;12114;53.404;-1.502;2022-11-20T08:57:20;16.70;;;6.90;;
23866;SDS011;12114;53.404;-1.502;2022-11-20T08:59:46;17.17;;;6.78;;
23866;SDS011;12114;53.404;-1.502;2022-11-20T09:02:11;19.48;;;6.00;;
23866;SDS011;12114;53.404;-1.502;2022-11-20T09:04:37;17.20;;;6.30;;
23866;SDS011;12114;53.404;-1.502;2022-11-20T09:07:02;20.05;;;8.38;;
23866;SDS011;12114;53.404;-1.502;2022-11-20T09:09:28;15.93;;;6.97;;
23866;SDS011;12114;53.404;-1.502;2022-11-20T09:11:53;14.82;;;6.68;;
23866;SDS011;12114;53.404;-1.502;2022-11-20T09:14:19;15.95;;;6.80;;
23866;SDS011;12114;53.404;-1.502;2022-11-20T09:16:45;16.60;;;6.30;;
23866;SDS011;12114;53.404;-1.502;2022-11-20T09:19:10;9.90;;;5.47;;
23866;SDS011;12114;53.404;-1.502;2022-11-20T09:21:36;18.58;;;6.78;;
23866;SDS011;12114;53.404;-1.502;2022-11-20T09:24:01;16.35;;;5.60;;
23866;SDS011;12114;53.404;-1.502;2022-11-20T09:26:27;14.25;;;5.65;;
23866;SDS011;12114;53.404;-1.502;2022-11-20T09:28:52;25.08;;;5.53;;
23866;SDS011;12114;53.404;-1.502;2022-11-20T09:31:24;20.67;;;5.68;;
23866;SDS011;12114;53.404;-1.502;2022-11-20T09:33:51;20.67;;;5.63;;
23866;SDS011;12114;53.404;-1.502;2022-11-20T09:36:16;22.42;;;5.18;;
23866;SDS011;12114;53.404;-1.502;2022-11-20T09:38:44;20.77;;;4.38;;
23866;SDS011;12114;53.404;-1.502;2022-11-20T09:41:10;19.70;;;5.10;;
23866;SDS011;12114;53.404;-1.502;2022-11-20T09:56:19;22.55;;;4.82;;
23866;SDS011;12114;53.404;-1.502;2022-11-20T09:58:45;21.88;;;5.30;;
23866;SDS011;12114;53.404;-1.502;2022-11-20T10:01:12;19.15;;;4.72;;
23866;SDS011;12114;53.404;-1.502;2022-11-20T10:03:41;19.40;;;5.28;;
23866;SDS011;12114;53.404;-1.502;2022-11-20T10:06:10;19.25;;;5.82;;
23866;SDS011;12114;53.404;-1.502;2022-11-20T10:13:53;18.13;;;4.63;;
23866;SDS011;12114;53.404;-1.502;2022-11-20T10:21:26;19.17;;;3.63;;
23866;SDS011;12114;53.404;-1.502;2022-11-20T10:24:41;25.13;;;4.20;;
23866;SDS011;12114;53.404;-1.502;2022-11-20T10:29:18;16.17;;;4.10;;
23866;SDS011;12114;53.404;-1.502;2022-11-20T10:31:49;18.80;;;3.88;;
23866;SDS011;12114;53.404;-1.502;2022-11-20T10:34:23;15.10;;;3.28;;
23866;SDS011;12114;53.404;-1.502;2022-11-20T10:36:52;13.02;;;2.85;;
23866;SDS011;12114;53.404;-1.502;2022-11-20T10:39:25;18.10;;;3.28;;
23866;SDS011;12114;53.404;-1.502;2022-11-20T10:41:52;14.98;;;2.95;;
23866;SDS011;12114;53.404;-1.502;2022-11-20T10:44:22;20.50;;;2.92;;
23866;SDS011;12114;53.404;-1.502;2022-11-20T10:47:15;12.23;;;2.47;;
23866;SDS011;12114;53.404;-1.502;2022-11-20T10:49:40;18.60;;;3.10;;
23866;SDS011;12114;53.404;-1.502;2022-11-20T11:00:16;19.77;;;3.40;;
23866;SDS011;12114;53.404;-1.502;2022-11-20T11:02:49;16.55;;;3.22;;
23866;SDS011;12114;53.404;-1.502;2022-11-20T11:07:43;18.65;;;3.40;;
23866;SDS011;12114;53.404;-1.502;2022-11-20T11:10:18;16.52;;;3.63;;
23866;SDS011;12114;53.404;-1.502;2022-11-20T11:12:45;19.50;;;4.10;;
23866;SDS011;12114;53.404;-1.502;2022-11-20T11:15:13;17.75;;;3.83;;
23866;SDS011;12114;53.404;-1.502;2022-11-20T11:17:45;17.77;;;4.18;;
23866;SDS011;12114;53.404;-1.502;2022-11-20T11:23:22;20.50;;;4.40;;
23866;SDS011;12114;53.404;-1.502;2022-11-20T11:25:33;20.40;;;4.50;;
23866;SDS011;12114;53.404;-1.502;2022-11-20T11:28:00;21.73;;;4.35;;
23866;SDS011;12114;53.404;-1.502;2022-11-20T11:30:27;13.60;;;3.75;;
23866;SDS011;12114;53.404;-1.502;2022-11-20T11:33:10;18.65;;;4.20;;
23866;SDS011;12114;53.404;-1.502;2022-11-20T11:35:39;18.05;;;3.25;;
23866;SDS011;12114;53.404;-1.502;2022-11-20T11:38:11;21.17;;;3.85;;
23866;SDS011;12114;53.404;-1.502;2022-11-20T11:40:39;20.63;;;3.58;;
23866;SDS011;12114;53.404;-1.502;2022-11-20T11:43:05;16.30;;;3.40;;
23866;SDS011;12114;53.404;-1.502;2022-11-20T11:45:54;17.70;;;3.58;;
23866;SDS011;12114;53.404;-1.502;2022-11-20T11:48:20;15.77;;;3.38;;
23866;SDS011;12114;53.404;-1.502;2022-11-20T11:50:49;22.02;;;3.45;;
23866;SDS011;12114;53.404;-1.502;2022-11-20T11:53:19;20.20;;;3.63;;
23866;SDS011;12114;53.404;-1.502;2022-11-20T11:55:59;19.33;;;3.35;;
23866;SDS011;12114;53.404;-1.502;2022-11-20T11:58:47;14.80;;;3.10;;
23866;SDS011;12114;53.404;-1.502;2022-11-20T12:03:50;13.25;;;2.90;;
23866;SDS011;12114;53.404;-1.502;2022-11-20T12:06:17;17.30;;;3.17;;
23866;SDS011;12114;53.404;-1.502;2022-11-20T12:08:50;14.18;;;3.15;;
23866;SDS011;12114;53.404;-1.502;2022-11-20T12:13:54;19.00;;;2.40;;
23866;SDS011;12114;53.404;-1.502;2022-11-20T12:16:21;19.25;;;2.70;;
23866;SDS011;12114;53.404;-1.502;2022-11-20T12:18:50;15.50;;;3.30;;
23866;SDS011;12114;53.404;-1.502;2022-11-20T12:29:01;24.70;;;3.10;;
23866;SDS011;12114;53.404;-1.502;2022-11-20T12:36:48;27.42;;;11.45;;
23866;SDS011;12114;53.404;-1.502;2022-11-20T12:39:49;18.67;;;4.53;;
23866;SDS011;12114;53.404;-1.502;2022-11-20T12:42:11;19.27;;;5.85;;
23866;SDS011;12114;53.404;-1.502;2022-11-20T12:56:00;15.85;;;2.75;;
23866;SDS011;12114;53.404;-1.502;2022-11-20T12:58:46;15.70;;;2.38;;
23866;SDS011;12114;53.404;-1.502;2022-11-20T13:01:22;13.98;;;2.85;;
23866;SDS011;12114;53.404;-1.502;2022-11-20T13:06:34;14.45;;;2.55;;
23866;SDS011;12114;53.404;-1.502;2022-11-20T13:09:00;20.73;;;3.53;;
23866;SDS011;12114;53.404;-1.502;2022-11-20T13:14:09;19.75;;;3.97;;
23866;SDS011;12114;53.404;-1.502;2022-11-20T13:19:20;16.42;;;2.78;;
23866;SDS011;12114;53.404;-1.502;2022-11-20T13:21:47;21.83;;;3.03;;
23866;SDS011;12114;53.404;-1.502;2022-11-20T13:29:33;15.73;;;3.05;;
23866;SDS011;12114;53.404;-1.502;2022-11-20T13:32:21;14.30;;;2.65;;
23866;SDS011;12114;53.404;-1.502;2022-11-20T13:34:59;15.95;;;3.25;;
23866;SDS011;12114;53.404;-1.502;2022-11-20T13:37:35;19.00;;;3.25;;
23866;SDS011;12114;53.404;-1.502;2022-11-20T13:42:35;17.08;;;3.55;;
23866;SDS011;12114;53.404;-1.502;2022-11-20T13:45:02;15.27;;;3.00;;
23866;SDS011;12114;53.404;-1.502;2022-11-20T13:47:28;20.23;;;3.20;;
23866;SDS011;12114;53.404;-1.502;2022-11-20T13:49:54;19.75;;;4.22;;
23866;SDS011;12114;53.404;-1.502;2022-11-20T13:52:28;15.50;;;4.82;;
23866;SDS011;12114;53.404;-1.502;2022-11-20T13:55:16;16.73;;;3.47;;
23866;SDS011;12114;53.404;-1.502;2022-11-20T14:00:15;14.50;;;3.60;;
23866;SDS011;12114;53.404;-1.502;2022-11-20T14:02:41;16.73;;;3.47;;
23866;SDS011;12114;53.404;-1.502;2022-11-20T14:05:13;17.05;;;3.30;;
23866;SDS011;12114;53.404;-1.502;2022-11-20T14:07:42;15.77;;;3.13;;
23866;SDS011;12114;53.404;-1.502;2022-11-20T14:12:48;13.80;;;3.63;;
23866;SDS011;12114;53.404;-1.502;2022-11-20T14:17:50;22.88;;;4.30;;
23866;SDS011;12114;53.404;-1.502;2022-11-20T14:20:16;17.20;;;4.18;;
23866;SDS011;12114;53.404;-1.502;2022-11-20T14:22:50;15.60;;;3.60;;
23866;SDS011;12114;53.404;-1.502;2022-11-20T14:27:42;17.40;;;4.38;;
23866;SDS011;12114;53.404;-1.502;2022-11-20T14:30:12;25.92;;;6.85;;
23866;SDS011;12114;53.404;-1.502;2022-11-20T14:32:39;29.38;;;9.50;;
23866;SDS011;12114;53.404;-1.502;2022-11-20T14:35:09;34.70;;;12.57;;
23866;SDS011;12114;53.404;-1.502;2022-11-20T14:37:38;33.58;;;12.27;;
23866;SDS011;12114;53.404;-1.502;2022-11-20T14:40:14;36.72;;;10.40;;
23866;SDS011;12114;53.404;-1.502;2022-11-20T14:42:46;23.65;;;7.40;;
23866;SDS011;12114;53.404;-1.502;2022-11-20T14:45:11;18.48;;;4.68;;
23866;SDS011;12114;53.404;-1.502;2022-11-20T14:47:37;11.98;;;3.67;;
23866;SDS011;12114;53.404;-1.502;2022-11-20T14:50:03;18.48;;;3.80;;
23866;SDS011;12114;53.404;-1.502;2022-11-20T14:52:29;18.00;;;3.05;;
23866;SDS011;12114;53.404;-1.502;2022-11-20T14:54:56;15.85;;;3.03;;
23866;SDS011;12114;53.404;-1.502;2022-11-20T15:02:30;13.75;;;4.28;;
23866;SDS011;12114;53.404;-1.502;2022-11-20T15:04:57;20.33;;;4.70;;
23866;SDS011;12114;53.404;-1.502;2022-11-20T15:07:24;25.92;;;4.53;;
23866;SDS011;12114;53.404;-1.502;2022-11-20T15:09:59;27.05;;;5.05;;
23866;SDS011;12114;53.404;-1.502;2022-11-20T15:12:24;18.58;;;4.30;;
23866;SDS011;12114;53.404;-1.502;2022-11-20T15:14:50;25.60;;;4.30;;
23866;SDS011;12114;53.404;-1.502;2022-11-20T15:17:16;22.23;;;4.72;;
23866;SDS011;12114;53.404;-1.502;2022-11-20T15:19:42;19.90;;;4.63;;
23866;SDS011;12114;53.404;-1.502;2022-11-20T15:22:09;13.45;;;4.28;;
23866;SDS011;12114;53.404;-1.502;2022-11-20T15:24:37;23.23;;;4.90;;
23866;SDS011;12114;53.404;-1.502;2022-11-20T15:27:03;20.92;;;5.28;;
23866;SDS011;12114;53.404;-1.502;2022-11-20T15:29:28;22.63;;;4.82;;
23866;SDS011;12114;53.404;-1.502;2022-11-20T15:31:53;21.05;;;4.57;;
23866;SDS011;12114;53.404;-1.502;2022-11-20T15:34:20;20.60;;;5.35;;
23866;SDS011;12114;53.404;-1.502;2022-11-20T15:36:45;19.85;;;5.53;;
23866;SDS011;12114;53.404;-1.502;2022-11-20T15:39:10;18.58;;;4.28;;
23866;SDS011;12114;53.404;-1.502;2022-11-20T15:41:36;15.07;;;4.40;;
23866;SDS011;12114;53.404;-1.502;2022-11-20T15:44:02;16.17;;;3.28;;
23866;SDS011;12114;53.404;-1.502;2022-11-20T15:46:29;13.80;;;2.47;;
23866;SDS011;12114;53.404;-1.502;2022-11-20T15:48:58;11.50;;;2.28;;
23866;SDS011;12114;53.404;-1.502;2022-11-20T15:53:50;13.55;;;2.75;;
23866;SDS011;12114;53.404;-1.502;2022-11-20T15:56:16;10.20;;;2.22;;
23866;SDS011;12114;53.404;-1.502;2022-11-20T15:58:41;9.27;;;2.20;;
23866;SDS011;12114;53.404;-1.502;2022-11-20T16:01:17;7.97;;;1.80;;
23866;SDS011;12114;53.404;-1.502;2022-11-20T16:03:43;5.88;;;1.60;;
23866;SDS011;12114;53.404;-1.502;2022-11-20T16:06:08;4.90;;;1.33;;
23866;SDS011;12114;53.404;-1.502;2022-11-20T16:08:34;5.80;;;2.17;;
23866;SDS011;12114;53.404;-1.502;2022-11-20T16:10:59;20.90;;;13.00;;
23866;SDS011;12114;53.404;-1.502;2022-11-20T16:13:24;3.17;;;1.55;;
23866;SDS011;12114;53.404;-1.502;2022-11-20T16:16:18;1.40;;;0.50;;
23866;SDS011;12114;53.404;-1.502;2022-11-20T16:18:44;1.80;;;1.00;;